SUV weather

Nausori International Airport
Nausori, Central, Fiji

Public forecast

Using degrees Celsius for public forecast. Weather courtesy of forecast.io.

METAR (pilot weather report)

Retrieved 2019/03/22 05:00 UTC (2 hours ago):

NFNA 220500Z 33003KT 9999 -SHRA SCT020TCU BKN048 BKN110 25/25 Q1012

TAF (pilot weather forecast)

Retrieved 2019/03/22 06:00 UTC (30 minutes ago):

TAF NFNA 220504Z 2206/2306 10008KT 9999 -SHRA SCT018 BKN045 PROB30 TEMPO 2206/2218 3000 TSRA BKN016 FEW018CB